메인 페이지
METAR-TAF:

METAR-TAF

공항 :

반, 터키

위도: 38-27N, 경도: 043-19E, 고도: 1667m

현재 날씨관측

예보는 44분 전, 17:50시(UTC)에 발표되었습니다.
무풍
온도 0°C
습도 86%
기압 1016 hPa
시정: 6000m
고도 3500ft 상공 구름 보통

METAR: LTCI 241750Z 00000KT 6000 SCT035 00/M02 Q1016 NOSIG

시각: 21:34 (18:34 UTC)

예보

예보는 1 시간 54분 전, 16:40시(UTC)에 발표되었습니다.
예보 대상 시간: 24일 18시부터 25일 03시까지 (UTC)
동남동6kt
시정: 8000m
고도 3500ft 상공 구름 보통
고도 8000ft 상공 구름 많음

TAF: LTCI 241640Z 2418/2503 12006KT 8000 SCT035 BKN080

4,000개 이상의 공항 관측 자료 및 예보 (METAR 및 TAF 보고).

지도상에서 검색 가능한 기상관측소가 노란 점과 빨간 점으로 표시되어 있습니다.

기상관측소 명을 보려면 표시 위로 마우스를 이동하세요.

날씨 관측과 예보를 보려면 클릭하세요.

지도 변경 : 확대하려면 엑스 표시가 있는 녹색 버튼, 축소하려면 빼기 표시가 있는 녹색 버튼, 다음 페이지의 지도를 보려면 녹색 화살표를 클릭하세요.


METAR-TAF: